sensor_id;sensor_type;location;lat;lon;timestamp;temperature;humidity
11284;DHT22;5698;47.332;11.180;2022-07-23T00:02:25;15.30;99.90
11284;DHT22;5698;47.332;11.180;2022-07-23T00:04:52;15.30;99.90
11284;DHT22;5698;47.332;11.180;2022-07-23T00:07:21;15.30;99.90
11284;DHT22;5698;47.332;11.180;2022-07-23T00:09:48;15.20;99.90
11284;DHT22;5698;47.332;11.180;2022-07-23T00:12:15;15.20;99.90
11284;DHT22;5698;47.332;11.180;2022-07-23T00:14:42;15.20;99.90
11284;DHT22;5698;47.332;11.180;2022-07-23T00:17:09;15.20;99.90
11284;DHT22;5698;47.332;11.180;2022-07-23T00:19:36;15.20;99.90
11284;DHT22;5698;47.332;11.180;2022-07-23T00:22:03;15.10;99.90
11284;DHT22;5698;47.332;11.180;2022-07-23T00:24:31;15.00;99.90
11284;DHT22;5698;47.332;11.180;2022-07-23T00:26:58;15.00;99.90
11284;DHT22;5698;47.332;11.180;2022-07-23T00:29:26;15.00;99.90
11284;DHT22;5698;47.332;11.180;2022-07-23T00:31:53;15.10;99.90
11284;DHT22;5698;47.332;11.180;2022-07-23T00:34:20;15.10;99.90
11284;DHT22;5698;47.332;11.180;2022-07-23T00:36:47;15.20;99.90
11284;DHT22;5698;47.332;11.180;2022-07-23T00:39:14;15.20;99.90
11284;DHT22;5698;47.332;11.180;2022-07-23T00:41:42;15.20;99.90
11284;DHT22;5698;47.332;11.180;2022-07-23T00:44:17;15.20;99.90
11284;DHT22;5698;47.332;11.180;2022-07-23T00:46:46;15.20;99.90
11284;DHT22;5698;47.332;11.180;2022-07-23T00:49:13;15.20;99.90
11284;DHT22;5698;47.332;11.180;2022-07-23T00:51:40;15.30;99.90
11284;DHT22;5698;47.332;11.180;2022-07-23T00:54:07;15.30;99.90
11284;DHT22;5698;47.332;11.180;2022-07-23T00:56:34;15.40;99.90
11284;DHT22;5698;47.332;11.180;2022-07-23T00:59:03;15.50;99.90
11284;DHT22;5698;47.332;11.180;2022-07-23T01:01:30;15.50;99.90
11284;DHT22;5698;47.332;11.180;2022-07-23T01:03:57;15.50;99.90
11284;DHT22;5698;47.332;11.180;2022-07-23T01:06:24;15.40;99.90
11284;DHT22;5698;47.332;11.180;2022-07-23T01:08:51;15.50;99.90
11284;DHT22;5698;47.332;11.180;2022-07-23T01:11:19;15.50;99.90
11284;DHT22;5698;47.332;11.180;2022-07-23T01:13:47;15.50;99.90
11284;DHT22;5698;47.332;11.180;2022-07-23T01:16:16;15.60;99.90
11284;DHT22;5698;47.332;11.180;2022-07-23T01:18:43;15.60;99.90
11284;DHT22;5698;47.332;11.180;2022-07-23T01:21:12;15.60;99.90
11284;DHT22;5698;47.332;11.180;2022-07-23T01:23:41;15.50;99.90
11284;DHT22;5698;47.332;11.180;2022-07-23T01:26:08;15.50;99.90
11284;DHT22;5698;47.332;11.180;2022-07-23T01:28:35;15.50;99.90
11284;DHT22;5698;47.332;11.180;2022-07-23T01:31:02;15.50;99.90
11284;DHT22;5698;47.332;11.180;2022-07-23T01:33:29;15.40;99.90
11284;DHT22;5698;47.332;11.180;2022-07-23T01:35:56;15.50;99.90
11284;DHT22;5698;47.332;11.180;2022-07-23T01:38:23;15.50;99.90
11284;DHT22;5698;47.332;11.180;2022-07-23T01:40:52;15.50;99.90
11284;DHT22;5698;47.332;11.180;2022-07-23T01:43:19;15.50;99.90
11284;DHT22;5698;47.332;11.180;2022-07-23T01:45:46;15.40;99.90
11284;DHT22;5698;47.332;11.180;2022-07-23T01:48:13;15.40;99.90
11284;DHT22;5698;47.332;11.180;2022-07-23T01:50:41;15.50;99.90
11284;DHT22;5698;47.332;11.180;2022-07-23T01:53:08;15.50;99.90
11284;DHT22;5698;47.332;11.180;2022-07-23T01:55:35;15.60;99.90
11284;DHT22;5698;47.332;11.180;2022-07-23T01:58:03;15.50;99.90
11284;DHT22;5698;47.332;11.180;2022-07-23T02:00:31;15.40;99.90
11284;DHT22;5698;47.332;11.180;2022-07-23T02:02:58;15.30;99.90
11284;DHT22;5698;47.332;11.180;2022-07-23T02:05:25;15.20;99.90
11284;DHT22;5698;47.332;11.180;2022-07-23T02:07:54;15.10;99.90
11284;DHT22;5698;47.332;11.180;2022-07-23T02:10:21;15.00;99.90
11284;DHT22;5698;47.332;11.180;2022-07-23T02:12:48;15.00;99.90
11284;DHT22;5698;47.332;11.180;2022-07-23T02:15:17;15.00;99.90
11284;DHT22;5698;47.332;11.180;2022-07-23T02:17:44;15.00;99.90
11284;DHT22;5698;47.332;11.180;2022-07-23T02:20:11;15.10;99.90
11284;DHT22;5698;47.332;11.180;2022-07-23T02:22:39;15.10;99.90
11284;DHT22;5698;47.332;11.180;2022-07-23T02:25:07;15.20;99.90
11284;DHT22;5698;47.332;11.180;2022-07-23T02:27:34;15.40;99.90
11284;DHT22;5698;47.332;11.180;2022-07-23T02:30:03;15.40;99.90
11284;DHT22;5698;47.332;11.180;2022-07-23T02:32:31;15.50;99.90
11284;DHT22;5698;47.332;11.180;2022-07-23T02:34:59;15.50;99.90
11284;DHT22;5698;47.332;11.180;2022-07-23T02:37:26;15.50;99.90
11284;DHT22;5698;47.332;11.180;2022-07-23T02:39:53;15.60;99.90
11284;DHT22;5698;47.332;11.180;2022-07-23T02:42:20;15.70;99.90
11284;DHT22;5698;47.332;11.180;2022-07-23T02:44:49;15.70;99.90
11284;DHT22;5698;47.332;11.180;2022-07-23T02:47:17;15.60;99.90
11284;DHT22;5698;47.332;11.180;2022-07-23T02:49:45;15.60;99.90
11284;DHT22;5698;47.332;11.180;2022-07-23T02:52:12;15.60;99.90
11284;DHT22;5698;47.332;11.180;2022-07-23T02:54:39;15.60;99.90
11284;DHT22;5698;47.332;11.180;2022-07-23T02:57:06;15.60;99.90
11284;DHT22;5698;47.332;11.180;2022-07-23T02:59:33;15.60;99.90
11284;DHT22;5698;47.332;11.180;2022-07-23T03:02:00;15.60;99.90
11284;DHT22;5698;47.332;11.180;2022-07-23T03:04:27;15.60;99.90
11284;DHT22;5698;47.332;11.180;2022-07-23T03:06:55;15.60;99.90
11284;DHT22;5698;47.332;11.180;2022-07-23T03:09:22;15.60;99.90
11284;DHT22;5698;47.332;11.180;2022-07-23T03:11:49;15.50;99.90
11284;DHT22;5698;47.332;11.180;2022-07-23T03:14:16;15.50;99.90
11284;DHT22;5698;47.332;11.180;2022-07-23T03:16:43;15.40;99.90
11284;DHT22;5698;47.332;11.180;2022-07-23T03:19:10;15.40;99.90
11284;DHT22;5698;47.332;11.180;2022-07-23T03:21:37;15.30;99.90
11284;DHT22;5698;47.332;11.180;2022-07-23T03:24:08;15.40;99.90
11284;DHT22;5698;47.332;11.180;2022-07-23T03:26:36;15.40;99.90
11284;DHT22;5698;47.332;11.180;2022-07-23T03:29:03;15.40;99.90
11284;DHT22;5698;47.332;11.180;2022-07-23T03:31:30;15.50;99.90
11284;DHT22;5698;47.332;11.180;2022-07-23T03:33:58;15.60;99.90
11284;DHT22;5698;47.332;11.180;2022-07-23T03:36:25;15.60;99.90
11284;DHT22;5698;47.332;11.180;2022-07-23T03:38:52;15.60;99.90
11284;DHT22;5698;47.332;11.180;2022-07-23T03:41:20;15.60;99.90
11284;DHT22;5698;47.332;11.180;2022-07-23T03:43:48;15.60;99.90
11284;DHT22;5698;47.332;11.180;2022-07-23T03:46:15;15.50;99.90
11284;DHT22;5698;47.332;11.180;2022-07-23T03:48:42;15.50;99.90
11284;DHT22;5698;47.332;11.180;2022-07-23T03:51:09;15.40;99.90
11284;DHT22;5698;47.332;11.180;2022-07-23T03:53:36;15.40;99.90
11284;DHT22;5698;47.332;11.180;2022-07-23T03:56:03;15.30;99.90
11284;DHT22;5698;47.332;11.180;2022-07-23T03:58:32;15.30;99.90
11284;DHT22;5698;47.332;11.180;2022-07-23T04:00:59;15.20;99.90
11284;DHT22;5698;47.332;11.180;2022-07-23T04:03:26;15.20;99.90
11284;DHT22;5698;47.332;11.180;2022-07-23T04:05:53;15.10;99.90
11284;DHT22;5698;47.332;11.180;2022-07-23T04:08:20;15.00;99.90
11284;DHT22;5698;47.332;11.180;2022-07-23T04:10:47;15.00;99.90
11284;DHT22;5698;47.332;11.180;2022-07-23T04:13:14;14.90;99.90
11284;DHT22;5698;47.332;11.180;2022-07-23T04:15:43;14.80;99.90
11284;DHT22;5698;47.332;11.180;2022-07-23T04:18:10;14.70;99.90
11284;DHT22;5698;47.332;11.180;2022-07-23T04:20:37;14.50;99.90
11284;DHT22;5698;47.332;11.180;2022-07-23T04:23:04;14.40;99.90
11284;DHT22;5698;47.332;11.180;2022-07-23T04:25:31;14.30;99.90
11284;DHT22;5698;47.332;11.180;2022-07-23T04:27:58;14.20;99.90
11284;DHT22;5698;47.332;11.180;2022-07-23T04:30:25;14.10;99.90
11284;DHT22;5698;47.332;11.180;2022-07-23T04:32:53;14.10;99.90
11284;DHT22;5698;47.332;11.180;2022-07-23T04:35:21;14.10;99.90
11284;DHT22;5698;47.332;11.180;2022-07-23T04:37:48;14.10;99.90
11284;DHT22;5698;47.332;11.180;2022-07-23T04:40:15;14.10;99.90
11284;DHT22;5698;47.332;11.180;2022-07-23T04:42:42;14.20;99.90
11284;DHT22;5698;47.332;11.180;2022-07-23T04:45:09;14.20;99.90
11284;DHT22;5698;47.332;11.180;2022-07-23T04:47:36;14.20;99.90
11284;DHT22;5698;47.332;11.180;2022-07-23T04:50:05;14.20;99.90
11284;DHT22;5698;47.332;11.180;2022-07-23T04:52:32;14.20;99.90
11284;DHT22;5698;47.332;11.180;2022-07-23T04:54:59;14.30;99.90
11284;DHT22;5698;47.332;11.180;2022-07-23T04:57:26;14.30;99.90
11284;DHT22;5698;47.332;11.180;2022-07-23T04:59:53;14.30;99.90
11284;DHT22;5698;47.332;11.180;2022-07-23T05:02:20;14.40;99.90
11284;DHT22;5698;47.332;11.180;2022-07-23T05:04:47;14.40;99.90
11284;DHT22;5698;47.332;11.180;2022-07-23T05:07:16;14.50;99.90
11284;DHT22;5698;47.332;11.180;2022-07-23T05:09:43;14.50;99.90
11284;DHT22;5698;47.332;11.180;2022-07-23T05:12:10;14.50;99.90
11284;DHT22;5698;47.332;11.180;2022-07-23T05:14:37;14.50;99.90
11284;DHT22;5698;47.332;11.180;2022-07-23T05:17:04;14.50;99.90
11284;DHT22;5698;47.332;11.180;2022-07-23T05:19:32;14.50;99.90
11284;DHT22;5698;47.332;11.180;2022-07-23T05:21:59;14.50;99.90
11284;DHT22;5698;47.332;11.180;2022-07-23T05:24:27;14.50;99.90
11284;DHT22;5698;47.332;11.180;2022-07-23T05:26:54;14.60;99.90
11284;DHT22;5698;47.332;11.180;2022-07-23T05:29:21;14.50;99.90
11284;DHT22;5698;47.332;11.180;2022-07-23T05:31:48;14.60;99.90
11284;DHT22;5698;47.332;11.180;2022-07-23T05:34:15;14.60;99.90
11284;DHT22;5698;47.332;11.180;2022-07-23T05:36:42;14.60;99.90
11284;DHT22;5698;47.332;11.180;2022-07-23T05:39:09;14.60;99.90
11284;DHT22;5698;47.332;11.180;2022-07-23T05:41:38;14.60;99.90
11284;DHT22;5698;47.332;11.180;2022-07-23T05:44:05;14.70;99.90
11284;DHT22;5698;47.332;11.180;2022-07-23T05:46:32;14.70;99.90
11284;DHT22;5698;47.332;11.180;2022-07-23T05:48:59;14.60;99.90
11284;DHT22;5698;47.332;11.180;2022-07-23T05:51:26;14.60;99.90
11284;DHT22;5698;47.332;11.180;2022-07-23T05:53:53;14.70;99.90
11284;DHT22;5698;47.332;11.180;2022-07-23T05:56:20;14.60;99.90
11284;DHT22;5698;47.332;11.180;2022-07-23T05:58:48;14.60;99.90
11284;DHT22;5698;47.332;11.180;2022-07-23T06:01:16;14.70;99.90
11284;DHT22;5698;47.332;11.180;2022-07-23T06:03:43;14.70;99.90
11284;DHT22;5698;47.332;11.180;2022-07-23T06:06:10;14.80;99.90
11284;DHT22;5698;47.332;11.180;2022-07-23T06:08:37;14.80;99.90
11284;DHT22;5698;47.332;11.180;2022-07-23T06:11:04;14.90;99.90
11284;DHT22;5698;47.332;11.180;2022-07-23T06:13:31;15.00;99.90
11284;DHT22;5698;47.332;11.180;2022-07-23T06:15:59;15.00;99.90
11284;DHT22;5698;47.332;11.180;2022-07-23T06:18:26;15.10;99.90
11284;DHT22;5698;47.332;11.180;2022-07-23T06:20:53;15.10;99.90
11284;DHT22;5698;47.332;11.180;2022-07-23T06:23:20;15.10;99.90
11284;DHT22;5698;47.332;11.180;2022-07-23T06:25:47;15.20;99.90
11284;DHT22;5698;47.332;11.180;2022-07-23T06:28:14;15.20;99.90
11284;DHT22;5698;47.332;11.180;2022-07-23T06:30:42;15.20;99.90
11284;DHT22;5698;47.332;11.180;2022-07-23T06:33:10;15.20;99.90
11284;DHT22;5698;47.332;11.180;2022-07-23T06:35:38;15.20;99.90
11284;DHT22;5698;47.332;11.180;2022-07-23T06:38:05;15.30;99.90
11284;DHT22;5698;47.332;11.180;2022-07-23T06:40:32;15.30;99.90
11284;DHT22;5698;47.332;11.180;2022-07-23T06:42:59;15.50;99.90
11284;DHT22;5698;47.332;11.180;2022-07-23T06:45:26;15.50;99.90
11284;DHT22;5698;47.332;11.180;2022-07-23T06:47:53;15.50;99.90
11284;DHT22;5698;47.332;11.180;2022-07-23T06:50:21;15.50;99.90
11284;DHT22;5698;47.332;11.180;2022-07-23T06:52:48;15.60;99.90
11284;DHT22;5698;47.332;11.180;2022-07-23T06:55:15;15.60;99.90
11284;DHT22;5698;47.332;11.180;2022-07-23T06:57:42;15.60;99.90
11284;DHT22;5698;47.332;11.180;2022-07-23T07:00:10;15.70;99.90
11284;DHT22;5698;47.332;11.180;2022-07-23T07:02:37;15.70;99.90
11284;DHT22;5698;47.332;11.180;2022-07-23T07:05:05;15.70;99.90
11284;DHT22;5698;47.332;11.180;2022-07-23T07:07:34;15.80;99.90
11284;DHT22;5698;47.332;11.180;2022-07-23T07:10:02;15.80;99.90
11284;DHT22;5698;47.332;11.180;2022-07-23T07:12:29;15.90;99.90
11284;DHT22;5698;47.332;11.180;2022-07-23T07:14:56;16.00;99.90
11284;DHT22;5698;47.332;11.180;2022-07-23T07:17:23;16.10;99.90
11284;DHT22;5698;47.332;11.180;2022-07-23T07:19:50;16.20;99.90
11284;DHT22;5698;47.332;11.180;2022-07-23T07:22:17;16.30;99.90
11284;DHT22;5698;47.332;11.180;2022-07-23T07:24:45;16.40;99.90
11284;DHT22;5698;47.332;11.180;2022-07-23T07:27:12;16.40;99.90
11284;DHT22;5698;47.332;11.180;2022-07-23T07:29:39;16.50;99.90
11284;DHT22;5698;47.332;11.180;2022-07-23T07:32:07;16.60;99.90
11284;DHT22;5698;47.332;11.180;2022-07-23T07:34:34;16.60;99.90
11284;DHT22;5698;47.332;11.180;2022-07-23T07:37:01;16.70;99.90
11284;DHT22;5698;47.332;11.180;2022-07-23T07:39:28;16.70;99.90
11284;DHT22;5698;47.332;11.180;2022-07-23T07:41:56;16.70;99.90
11284;DHT22;5698;47.332;11.180;2022-07-23T07:44:23;16.70;99.90
11284;DHT22;5698;47.332;11.180;2022-07-23T07:46:50;16.80;99.90
11284;DHT22;5698;47.332;11.180;2022-07-23T07:49:18;16.80;99.90
11284;DHT22;5698;47.332;11.180;2022-07-23T07:51:45;16.80;99.90
11284;DHT22;5698;47.332;11.180;2022-07-23T07:54:12;16.80;99.90
11284;DHT22;5698;47.332;11.180;2022-07-23T07:56:39;16.80;99.90
11284;DHT22;5698;47.332;11.180;2022-07-23T07:59:08;16.90;99.90
11284;DHT22;5698;47.332;11.180;2022-07-23T08:01:36;16.90;99.90
11284;DHT22;5698;47.332;11.180;2022-07-23T08:04:04;16.90;99.90
11284;DHT22;5698;47.332;11.180;2022-07-23T08:06:31;16.90;99.90
11284;DHT22;5698;47.332;11.180;2022-07-23T08:08:58;16.80;99.90
11284;DHT22;5698;47.332;11.180;2022-07-23T08:11:25;16.90;99.90
11284;DHT22;5698;47.332;11.180;2022-07-23T08:13:52;16.90;99.90
11284;DHT22;5698;47.332;11.180;2022-07-23T08:16:20;17.00;99.90
11284;DHT22;5698;47.332;11.180;2022-07-23T08:18:48;17.00;99.90
11284;DHT22;5698;47.332;11.180;2022-07-23T08:21:15;16.90;99.90
11284;DHT22;5698;47.332;11.180;2022-07-23T08:23:42;16.80;99.90
11284;DHT22;5698;47.332;11.180;2022-07-23T08:26:09;16.70;99.90
11284;DHT22;5698;47.332;11.180;2022-07-23T08:28:36;16.60;99.90
11284;DHT22;5698;47.332;11.180;2022-07-23T08:31:03;16.60;99.90
11284;DHT22;5698;47.332;11.180;2022-07-23T08:33:32;16.60;99.90
11284;DHT22;5698;47.332;11.180;2022-07-23T08:36:00;16.70;99.90
11284;DHT22;5698;47.332;11.180;2022-07-23T08:38:28;16.70;99.90
11284;DHT22;5698;47.332;11.180;2022-07-23T08:40:55;16.70;99.90
11284;DHT22;5698;47.332;11.180;2022-07-23T08:43:25;16.80;99.90
11284;DHT22;5698;47.332;11.180;2022-07-23T08:45:54;16.90;99.90
11284;DHT22;5698;47.332;11.180;2022-07-23T08:48:24;17.00;99.90
11284;DHT22;5698;47.332;11.180;2022-07-23T08:50:54;17.10;99.90
11284;DHT22;5698;47.332;11.180;2022-07-23T08:53:23;17.10;99.90
11284;DHT22;5698;47.332;11.180;2022-07-23T08:55:52;17.20;99.90
11284;DHT22;5698;47.332;11.180;2022-07-23T08:58:20;17.30;99.90
11284;DHT22;5698;47.332;11.180;2022-07-23T09:00:48;17.40;99.90
11284;DHT22;5698;47.332;11.180;2022-07-23T09:03:17;17.60;99.90
11284;DHT22;5698;47.332;11.180;2022-07-23T09:05:44;18.00;99.90
11284;DHT22;5698;47.332;11.180;2022-07-23T09:08:14;18.30;99.90
11284;DHT22;5698;47.332;11.180;2022-07-23T09:10:46;18.70;99.90
11284;DHT22;5698;47.332;11.180;2022-07-23T09:13:34;18.90;99.90
11284;DHT22;5698;47.332;11.180;2022-07-23T09:16:05;19.00;99.90
11284;DHT22;5698;47.332;11.180;2022-07-23T09:18:38;19.00;99.90
11284;DHT22;5698;47.332;11.180;2022-07-23T09:21:17;19.00;99.90
11284;DHT22;5698;47.332;11.180;2022-07-23T09:23:48;19.00;99.90
11284;DHT22;5698;47.332;11.180;2022-07-23T09:26:37;19.10;99.90
11284;DHT22;5698;47.332;11.180;2022-07-23T09:29:07;19.20;99.90
11284;DHT22;5698;47.332;11.180;2022-07-23T09:31:43;19.40;99.90
11284;DHT22;5698;47.332;11.180;2022-07-23T09:34:13;19.40;99.90
11284;DHT22;5698;47.332;11.180;2022-07-23T09:36:41;19.60;99.90
11284;DHT22;5698;47.332;11.180;2022-07-23T09:39:11;19.60;99.90
11284;DHT22;5698;47.332;11.180;2022-07-23T09:41:43;19.70;99.90
11284;DHT22;5698;47.332;11.180;2022-07-23T09:44:13;19.70;99.90
11284;DHT22;5698;47.332;11.180;2022-07-23T09:46:42;19.70;99.90
11284;DHT22;5698;47.332;11.180;2022-07-23T09:49:15;19.80;99.90
11284;DHT22;5698;47.332;11.180;2022-07-23T09:51:47;19.70;99.90
11284;DHT22;5698;47.332;11.180;2022-07-23T09:54:30;19.80;99.90
11284;DHT22;5698;47.332;11.180;2022-07-23T09:57:01;19.80;99.90
11284;DHT22;5698;47.332;11.180;2022-07-23T09:59:31;19.90;99.90
11284;DHT22;5698;47.332;11.180;2022-07-23T10:02:00;19.90;99.90
11284;DHT22;5698;47.332;11.180;2022-07-23T10:04:28;20.00;99.90
11284;DHT22;5698;47.332;11.180;2022-07-23T10:06:58;19.90;99.90
11284;DHT22;5698;47.332;11.180;2022-07-23T10:09:28;19.80;99.90
11284;DHT22;5698;47.332;11.180;2022-07-23T10:11:57;19.90;99.90
11284;DHT22;5698;47.332;11.180;2022-07-23T10:14:35;20.00;99.90
11284;DHT22;5698;47.332;11.180;2022-07-23T10:17:02;19.90;99.90
11284;DHT22;5698;47.332;11.180;2022-07-23T10:19:29;20.00;99.90
11284;DHT22;5698;47.332;11.180;2022-07-23T10:21:59;20.00;99.90
11284;DHT22;5698;47.332;11.180;2022-07-23T10:24:40;20.20;99.90
11284;DHT22;5698;47.332;11.180;2022-07-23T10:27:37;20.50;99.90
11284;DHT22;5698;47.332;11.180;2022-07-23T10:30:10;20.90;99.90
11284;DHT22;5698;47.332;11.180;2022-07-23T10:32:45;21.20;99.90
11284;DHT22;5698;47.332;11.180;2022-07-23T10:35:31;21.50;99.90
11284;DHT22;5698;47.332;11.180;2022-07-23T10:38:03;21.70;99.90
11284;DHT22;5698;47.332;11.180;2022-07-23T10:40:35;21.80;99.90
11284;DHT22;5698;47.332;11.180;2022-07-23T10:43:13;22.10;99.90
11284;DHT22;5698;47.332;11.180;2022-07-23T10:45:41;22.20;99.90
11284;DHT22;5698;47.332;11.180;2022-07-23T10:48:14;22.30;99.90
11284;DHT22;5698;47.332;11.180;2022-07-23T10:50:42;22.50;99.90
11284;DHT22;5698;47.332;11.180;2022-07-23T10:53:16;22.50;99.90
11284;DHT22;5698;47.332;11.180;2022-07-23T10:55:50;22.60;99.90
11284;DHT22;5698;47.332;11.180;2022-07-23T11:01:31;22.80;99.90
11284;DHT22;5698;47.332;11.180;2022-07-23T11:03:59;22.80;99.90
11284;DHT22;5698;47.332;11.180;2022-07-23T11:07:07;22.80;99.90
11284;DHT22;5698;47.332;11.180;2022-07-23T11:09:39;22.80;99.90
11284;DHT22;5698;47.332;11.180;2022-07-23T11:12:35;22.80;99.90
11284;DHT22;5698;47.332;11.180;2022-07-23T11:15:07;22.80;99.90
11284;DHT22;5698;47.332;11.180;2022-07-23T11:17:36;23.00;99.90
11284;DHT22;5698;47.332;11.180;2022-07-23T11:20:16;23.10;99.90
11284;DHT22;5698;47.332;11.180;2022-07-23T11:22:49;23.30;99.90
11284;DHT22;5698;47.332;11.180;2022-07-23T11:25:31;23.50;99.90
11284;DHT22;5698;47.332;11.180;2022-07-23T11:28:11;23.60;99.90
11284;DHT22;5698;47.332;11.180;2022-07-23T11:30:40;23.70;99.90
11284;DHT22;5698;47.332;11.180;2022-07-23T11:33:18;23.70;99.90
11284;DHT22;5698;47.332;11.180;2022-07-23T11:35:47;23.80;99.90
11284;DHT22;5698;47.332;11.180;2022-07-23T11:38:16;24.00;99.90
11284;DHT22;5698;47.332;11.180;2022-07-23T11:40:46;24.30;99.90
11284;DHT22;5698;47.332;11.180;2022-07-23T11:43:14;24.30;99.90
11284;DHT22;5698;47.332;11.180;2022-07-23T11:45:43;24.40;99.90
11284;DHT22;5698;47.332;11.180;2022-07-23T11:48:17;24.30;99.90
11284;DHT22;5698;47.332;11.180;2022-07-23T11:50:44;24.20;99.90
11284;DHT22;5698;47.332;11.180;2022-07-23T11:53:11;24.40;99.90
11284;DHT22;5698;47.332;11.180;2022-07-23T11:55:39;24.60;99.90
11284;DHT22;5698;47.332;11.180;2022-07-23T11:58:06;24.80;99.00
11284;DHT22;5698;47.332;11.180;2022-07-23T12:00:34;24.90;97.60
11284;DHT22;5698;47.332;11.180;2022-07-23T12:03:03;25.10;98.80
11284;DHT22;5698;47.332;11.180;2022-07-23T12:05:33;25.10;97.80
11284;DHT22;5698;47.332;11.180;2022-07-23T12:08:02;25.10;96.90
11284;DHT22;5698;47.332;11.180;2022-07-23T12:10:35;25.10;97.10
11284;DHT22;5698;47.332;11.180;2022-07-23T12:13:03;24.90;96.80
11284;DHT22;5698;47.332;11.180;2022-07-23T12:15:32;24.90;98.00
11284;DHT22;5698;47.332;11.180;2022-07-23T12:18:01;24.90;98.10
11284;DHT22;5698;47.332;11.180;2022-07-23T12:20:31;24.80;98.00
11284;DHT22;5698;47.332;11.180;2022-07-23T12:23:00;24.40;99.90
11284;DHT22;5698;47.332;11.180;2022-07-23T12:25:29;24.10;99.90
11284;DHT22;5698;47.332;11.180;2022-07-23T12:28:03;23.70;99.90
11284;DHT22;5698;47.332;11.180;2022-07-23T12:30:32;23.60;99.90
11284;DHT22;5698;47.332;11.180;2022-07-23T12:33:01;23.60;99.90
11284;DHT22;5698;47.332;11.180;2022-07-23T12:35:34;23.70;99.90
11284;DHT22;5698;47.332;11.180;2022-07-23T12:38:04;23.80;99.90
11284;DHT22;5698;47.332;11.180;2022-07-23T12:40:33;23.90;99.90
11284;DHT22;5698;47.332;11.180;2022-07-23T12:43:02;24.00;99.90
11284;DHT22;5698;47.332;11.180;2022-07-23T12:45:43;24.10;99.90
11284;DHT22;5698;47.332;11.180;2022-07-23T12:48:18;24.30;99.90
11284;DHT22;5698;47.332;11.180;2022-07-23T12:50:50;24.30;99.90
11284;DHT22;5698;47.332;11.180;2022-07-23T12:53:20;24.60;99.90
11284;DHT22;5698;47.332;11.180;2022-07-23T12:55:47;24.80;99.90
11284;DHT22;5698;47.332;11.180;2022-07-23T12:58:16;25.10;99.60
11284;DHT22;5698;47.332;11.180;2022-07-23T13:01:04;25.40;99.90
11284;DHT22;5698;47.332;11.180;2022-07-23T13:03:36;25.60;98.40
11284;DHT22;5698;47.332;11.180;2022-07-23T13:06:05;25.70;99.60
11284;DHT22;5698;47.332;11.180;2022-07-23T13:08:33;25.90;98.80
11284;DHT22;5698;47.332;11.180;2022-07-23T13:11:01;26.20;99.10
11284;DHT22;5698;47.332;11.180;2022-07-23T13:13:30;26.50;97.90
11284;DHT22;5698;47.332;11.180;2022-07-23T13:15:58;26.80;97.30
11284;DHT22;5698;47.332;11.180;2022-07-23T13:18:26;27.00;97.10
11284;DHT22;5698;47.332;11.180;2022-07-23T13:20:55;26.70;97.10
11284;DHT22;5698;47.332;11.180;2022-07-23T13:23:22;26.40;97.70
11284;DHT22;5698;47.332;11.180;2022-07-23T13:25:50;26.30;97.70
11284;DHT22;5698;47.332;11.180;2022-07-23T13:28:19;26.20;98.00
11284;DHT22;5698;47.332;11.180;2022-07-23T13:30:47;26.10;98.10
11284;DHT22;5698;47.332;11.180;2022-07-23T13:33:15;25.90;98.00
11284;DHT22;5698;47.332;11.180;2022-07-23T13:35:43;25.80;98.10
11284;DHT22;5698;47.332;11.180;2022-07-23T13:38:12;25.60;97.10
11284;DHT22;5698;47.332;11.180;2022-07-23T13:40:41;25.50;99.30
11284;DHT22;5698;47.332;11.180;2022-07-23T13:43:09;25.20;99.90
11284;DHT22;5698;47.332;11.180;2022-07-23T13:45:37;25.10;99.90
11284;DHT22;5698;47.332;11.180;2022-07-23T13:48:05;24.70;99.90
11284;DHT22;5698;47.332;11.180;2022-07-23T13:50:33;24.20;99.90
11284;DHT22;5698;47.332;11.180;2022-07-23T13:53:02;23.80;99.90
11284;DHT22;5698;47.332;11.180;2022-07-23T13:55:31;23.40;99.90
11284;DHT22;5698;47.332;11.180;2022-07-23T13:57:59;23.10;99.90
11284;DHT22;5698;47.332;11.180;2022-07-23T14:00:27;22.50;99.90
11284;DHT22;5698;47.332;11.180;2022-07-23T14:02:54;22.00;99.90
11284;DHT22;5698;47.332;11.180;2022-07-23T14:05:22;21.70;99.90
11284;DHT22;5698;47.332;11.180;2022-07-23T14:07:49;21.60;99.90
11284;DHT22;5698;47.332;11.180;2022-07-23T14:10:18;21.60;99.90
11284;DHT22;5698;47.332;11.180;2022-07-23T14:12:47;21.30;99.90
11284;DHT22;5698;47.332;11.180;2022-07-23T14:15:15;20.60;99.90
11284;DHT22;5698;47.332;11.180;2022-07-23T14:17:43;20.60;99.90
11284;DHT22;5698;47.332;11.180;2022-07-23T14:20:12;20.80;99.90
11284;DHT22;5698;47.332;11.180;2022-07-23T14:22:40;20.90;99.90
11284;DHT22;5698;47.332;11.180;2022-07-23T14:25:08;21.10;99.90
11284;DHT22;5698;47.332;11.180;2022-07-23T14:27:36;21.20;99.90
11284;DHT22;5698;47.332;11.180;2022-07-23T14:30:07;21.50;99.90
11284;DHT22;5698;47.332;11.180;2022-07-23T14:32:35;21.60;99.90
11284;DHT22;5698;47.332;11.180;2022-07-23T14:35:03;21.70;99.90
11284;DHT22;5698;47.332;11.180;2022-07-23T14:37:30;21.90;99.90
11284;DHT22;5698;47.332;11.180;2022-07-23T14:39:57;22.00;99.90
11284;DHT22;5698;47.332;11.180;2022-07-23T14:42:25;21.90;99.90
11284;DHT22;5698;47.332;11.180;2022-07-23T14:44:52;21.70;99.90
11284;DHT22;5698;47.332;11.180;2022-07-23T14:47:20;21.70;99.90
11284;DHT22;5698;47.332;11.180;2022-07-23T14:49:47;21.80;99.90
11284;DHT22;5698;47.332;11.180;2022-07-23T14:52:14;21.80;99.90
11284;DHT22;5698;47.332;11.180;2022-07-23T14:54:42;21.80;99.90
11284;DHT22;5698;47.332;11.180;2022-07-23T14:57:09;21.70;99.90
11284;DHT22;5698;47.332;11.180;2022-07-23T14:59:36;21.50;99.90
11284;DHT22;5698;47.332;11.180;2022-07-23T15:02:03;21.10;99.90
11284;DHT22;5698;47.332;11.180;2022-07-23T15:04:31;20.80;99.90
11284;DHT22;5698;47.332;11.180;2022-07-23T15:06:59;20.60;99.90
11284;DHT22;5698;47.332;11.180;2022-07-23T15:09:26;20.50;99.90
11284;DHT22;5698;47.332;11.180;2022-07-23T15:11:53;20.40;99.90
11284;DHT22;5698;47.332;11.180;2022-07-23T15:14:20;20.40;99.90
11284;DHT22;5698;47.332;11.180;2022-07-23T15:16:47;20.30;99.90
11284;DHT22;5698;47.332;11.180;2022-07-23T15:19:14;20.40;99.90
11284;DHT22;5698;47.332;11.180;2022-07-23T15:21:42;20.50;99.90
11284;DHT22;5698;47.332;11.180;2022-07-23T15:24:10;20.40;99.90
11284;DHT22;5698;47.332;11.180;2022-07-23T15:26:37;20.20;99.90
11284;DHT22;5698;47.332;11.180;2022-07-23T15:29:04;19.90;99.90
11284;DHT22;5698;47.332;11.180;2022-07-23T15:31:32;19.90;99.90
11284;DHT22;5698;47.332;11.180;2022-07-23T15:33:59;20.00;99.90
11284;DHT22;5698;47.332;11.180;2022-07-23T15:36:26;20.00;99.90
11284;DHT22;5698;47.332;11.180;2022-07-23T15:38:54;20.00;99.90
11284;DHT22;5698;47.332;11.180;2022-07-23T15:41:21;20.00;99.90
11284;DHT22;5698;47.332;11.180;2022-07-23T15:43:48;19.90;99.90